createdAt,value
2023-05-05T00:02:20.677Z,2.90
2023-05-05T00:04:48.856Z,3.10
2023-05-05T00:07:16.921Z,3.10
2023-05-05T00:09:44.893Z,3.10
2023-05-05T00:12:12.855Z,2.80
2023-05-05T00:14:41.556Z,2.80
2023-05-05T00:17:09.720Z,3.30
2023-05-05T00:19:37.896Z,2.90
2023-05-05T00:22:06.227Z,3.30
2023-05-05T00:24:34.241Z,3.20
2023-05-05T00:27:02.518Z,3.10
2023-05-05T00:29:30.646Z,3.00
2023-05-05T00:31:58.651Z,2.80
2023-05-05T00:34:26.543Z,2.70
2023-05-05T00:36:54.892Z,2.80
2023-05-05T00:39:23.469Z,2.70
2023-05-05T00:41:51.560Z,2.90
2023-05-05T00:44:37.128Z,2.80
2023-05-05T00:47:05.900Z,2.60
2023-05-05T00:49:36.061Z,3.00
2023-05-05T00:52:06.772Z,3.00
2023-05-05T00:54:35.514Z,3.00
2023-05-05T00:57:04.219Z,3.00
2023-05-05T00:59:33.759Z,3.10
2023-05-05T01:02:01.818Z,3.00
2023-05-05T01:04:30.109Z,3.30
2023-05-05T01:07:41.839Z,3.00
2023-05-05T01:10:22.419Z,3.30
2023-05-05T01:12:53.673Z,3.70
2023-05-05T01:15:41.753Z,3.60
2023-05-05T01:18:30.959Z,3.30
2023-05-05T01:21:39.438Z,3.60
2023-05-05T01:24:25.155Z,3.50
2023-05-05T01:27:14.261Z,3.70
2023-05-05T01:30:22.375Z,4.00
2023-05-05T01:32:57.262Z,3.70
2023-05-05T01:35:30.103Z,3.70
2023-05-05T01:38:17.829Z,3.30
2023-05-05T01:40:50.189Z,3.20
2023-05-05T01:43:22.803Z,3.60
2023-05-05T01:45:53.435Z,3.70
2023-05-05T01:48:24.744Z,3.30
2023-05-05T01:50:54.187Z,3.40
2023-05-05T01:53:25.796Z,4.30
2023-05-05T01:55:55.243Z,3.50
2023-05-05T01:58:25.623Z,3.20
2023-05-05T02:00:56.402Z,3.60
2023-05-05T02:03:27.039Z,3.20
2023-05-05T02:05:55.746Z,3.40
2023-05-05T02:08:26.211Z,3.20
2023-05-05T02:10:56.219Z,3.50
2023-05-05T02:13:26.234Z,3.20
2023-05-05T02:15:55.926Z,3.40
2023-05-05T02:18:26.145Z,3.40
2023-05-05T02:20:54.444Z,3.60
2023-05-05T02:23:22.669Z,3.40
2023-05-05T02:25:55.906Z,3.50
2023-05-05T02:28:33.691Z,3.70
2023-05-05T02:31:06.150Z,3.40
2023-05-05T02:33:35.595Z,3.50
2023-05-05T02:36:12.784Z,3.10
2023-05-05T02:38:49.234Z,3.40
2023-05-05T02:41:21.351Z,3.80
2023-05-05T02:43:51.301Z,3.30
2023-05-05T02:46:19.671Z,3.50
2023-05-05T02:48:48.172Z,3.40
2023-05-05T02:51:16.240Z,3.20
2023-05-05T02:53:44.440Z,3.60
2023-05-05T02:56:49.118Z,3.40
2023-05-05T02:59:26.557Z,3.10
2023-05-05T03:02:06.893Z,3.30
2023-05-05T03:04:47.159Z,3.20
2023-05-05T03:07:26.793Z,3.60
2023-05-05T03:10:07.598Z,3.40
2023-05-05T03:13:00.150Z,3.30
2023-05-05T03:15:43.516Z,3.20
2023-05-05T03:18:15.666Z,3.30
2023-05-05T03:20:46.634Z,3.40
2023-05-05T03:23:18.502Z,3.50
2023-05-05T03:25:49.145Z,3.40
2023-05-05T03:28:29.696Z,3.20
2023-05-05T03:30:59.394Z,3.30
2023-05-05T03:33:27.445Z,3.30
2023-05-05T03:35:59.097Z,3.30
2023-05-05T03:38:27.123Z,3.20
2023-05-05T03:40:56.224Z,3.40
2023-05-05T03:43:25.571Z,3.20
2023-05-05T03:45:53.775Z,3.00
2023-05-05T03:48:22.441Z,3.20
2023-05-05T03:50:50.927Z,3.50
2023-05-05T03:53:19.663Z,3.30
2023-05-05T03:55:47.994Z,3.20
2023-05-05T03:58:16.655Z,3.30
2023-05-05T04:00:44.766Z,3.40
2023-05-05T04:03:12.888Z,2.90
2023-05-05T04:05:41.089Z,3.30
2023-05-05T04:08:09.162Z,3.10
2023-05-05T04:10:37.243Z,3.10
2023-05-05T04:13:05.692Z,3.00
2023-05-05T04:15:33.781Z,3.10
2023-05-05T04:18:02.263Z,3.00
2023-05-05T04:20:30.535Z,3.20
2023-05-05T04:22:58.925Z,3.10
2023-05-05T04:25:27.599Z,2.90
2023-05-05T04:27:56.091Z,2.80
2023-05-05T04:30:24.152Z,2.70
2023-05-05T04:32:52.254Z,2.90
2023-05-05T04:35:20.851Z,2.70
2023-05-05T04:37:48.932Z,2.20
2023-05-05T04:40:17.358Z,2.60
2023-05-05T04:42:45.632Z,2.90
2023-05-05T04:45:13.807Z,2.60
2023-05-05T04:47:42.315Z,2.30
2023-05-05T04:50:11.668Z,2.10
2023-05-05T04:52:40.327Z,2.10
2023-05-05T04:55:10.736Z,2.20
2023-05-05T04:57:38.970Z,2.40
2023-05-05T05:00:07.846Z,2.40
2023-05-05T05:02:37.793Z,2.60
2023-05-05T05:05:06.692Z,2.00
2023-05-05T05:07:34.712Z,2.10
2023-05-05T05:10:03.391Z,2.00
2023-05-05T05:12:31.529Z,2.10
2023-05-05T05:14:59.770Z,2.40
2023-05-05T05:17:27.851Z,2.10
2023-05-05T05:19:57.186Z,2.00
2023-05-05T05:22:25.140Z,2.00
2023-05-05T05:24:54.141Z,1.90
2023-05-05T05:27:22.159Z,2.30
2023-05-05T05:29:51.525Z,2.10
2023-05-05T05:32:19.738Z,1.90
2023-05-05T05:34:48.523Z,2.10
2023-05-05T05:37:17.414Z,1.90
2023-05-05T05:39:52.353Z,1.90
2023-05-05T05:42:21.040Z,1.90
2023-05-05T05:44:49.070Z,2.00
2023-05-05T05:47:17.085Z,1.90
2023-05-05T05:49:46.065Z,1.90
2023-05-05T05:52:14.129Z,1.80
2023-05-05T05:54:42.737Z,1.90
2023-05-05T05:57:12.214Z,2.20
2023-05-05T05:59:40.801Z,1.90
2023-05-05T06:02:09.788Z,1.90
2023-05-05T06:04:37.940Z,1.80
2023-05-05T06:07:06.509Z,2.00
2023-05-05T06:09:34.816Z,1.90
2023-05-05T06:12:04.053Z,2.10
2023-05-05T06:14:32.611Z,2.00
2023-05-05T06:17:00.698Z,1.80
2023-05-05T06:19:29.762Z,2.00
2023-05-05T06:21:58.040Z,1.90
2023-05-05T06:24:26.212Z,1.80
2023-05-05T06:26:54.404Z,1.90
2023-05-05T06:29:22.430Z,1.90
2023-05-05T06:31:50.422Z,2.00
2023-05-05T06:34:18.434Z,1.80
2023-05-05T06:36:46.535Z,1.70
2023-05-05T06:39:16.025Z,1.60
2023-05-05T06:41:44.246Z,1.80
2023-05-05T06:44:12.161Z,1.80
2023-05-05T06:46:40.522Z,1.80
2023-05-05T06:49:08.449Z,1.80
2023-05-05T06:51:36.639Z,1.50
2023-05-05T06:54:04.715Z,1.80
2023-05-05T06:56:32.647Z,1.70
2023-05-05T06:59:00.863Z,1.90
2023-05-05T07:01:28.836Z,1.70
2023-05-05T07:03:57.218Z,1.90
2023-05-05T07:06:25.372Z,1.90
2023-05-05T07:08:53.411Z,1.90
2023-05-05T07:11:21.723Z,1.90
2023-05-05T07:13:49.676Z,2.00
2023-05-05T07:16:17.772Z,2.00
2023-05-05T07:18:45.990Z,2.10
2023-05-05T07:21:13.927Z,1.90
2023-05-05T07:23:41.915Z,1.80
2023-05-05T07:26:10.033Z,1.80
2023-05-05T07:28:38.113Z,1.90
2023-05-05T07:31:06.066Z,1.80
2023-05-05T07:33:34.293Z,1.90
2023-05-05T07:36:02.725Z,2.00
2023-05-05T07:38:30.755Z,1.90
2023-05-05T07:40:58.757Z,1.90
2023-05-05T07:43:26.828Z,1.80
2023-05-05T07:45:55.034Z,1.70
2023-05-05T07:48:23.382Z,1.50
2023-05-05T07:50:52.966Z,1.60
2023-05-05T07:53:21.065Z,1.50
2023-05-05T07:55:49.099Z,1.60
2023-05-05T07:58:17.327Z,1.50
2023-05-05T08:00:45.567Z,1.60
2023-05-05T08:03:13.687Z,1.70
2023-05-05T08:05:42.427Z,2.10
2023-05-05T08:08:10.367Z,2.00
2023-05-05T08:10:38.290Z,1.60
2023-05-05T08:13:06.680Z,1.70
2023-05-05T08:15:34.844Z,1.80
2023-05-05T08:18:02.995Z,1.50
2023-05-05T08:20:31.475Z,1.70
2023-05-05T08:22:59.541Z,1.50
2023-05-05T08:25:27.652Z,1.80
2023-05-05T08:27:55.861Z,1.60
2023-05-05T08:30:24.460Z,1.60
2023-05-05T08:32:52.712Z,1.50
2023-05-05T08:35:21.729Z,1.80
2023-05-05T08:37:51.815Z,1.80
2023-05-05T08:40:23.117Z,1.40
2023-05-05T08:42:51.322Z,1.60
2023-05-05T08:45:19.342Z,1.70
2023-05-05T08:47:47.448Z,1.50
2023-05-05T08:50:17.788Z,1.70
2023-05-05T08:52:53.898Z,1.80
2023-05-05T08:55:26.935Z,1.60
2023-05-05T08:57:58.047Z,1.60
2023-05-05T09:00:27.317Z,1.70
2023-05-05T09:02:59.942Z,1.40
2023-05-05T09:05:28.280Z,1.50
2023-05-05T09:07:56.240Z,1.50
2023-05-05T09:10:25.548Z,1.70
2023-05-05T09:12:53.718Z,1.50
2023-05-05T09:15:21.830Z,1.50
2023-05-05T09:17:49.876Z,1.30
2023-05-05T09:20:17.852Z,1.70
2023-05-05T09:22:47.589Z,1.70
2023-05-05T09:25:17.909Z,1.50
2023-05-05T09:27:48.505Z,1.30
2023-05-05T09:30:18.531Z,1.40
2023-05-05T09:32:51.685Z,1.50
2023-05-05T09:35:21.920Z,1.50
2023-05-05T09:37:50.639Z,1.40
2023-05-05T09:40:20.545Z,1.70
2023-05-05T09:42:48.795Z,1.50
2023-05-05T09:45:20.122Z,1.60
2023-05-05T09:47:49.249Z,1.40
2023-05-05T09:50:21.058Z,1.40
2023-05-05T09:53:02.640Z,1.30
2023-05-05T09:55:33.534Z,1.60
2023-05-05T09:58:20.938Z,1.50
2023-05-05T10:00:49.212Z,1.30
2023-05-05T10:03:17.585Z,1.30
2023-05-05T10:05:57.326Z,1.30
2023-05-05T10:08:31.596Z,1.30
2023-05-05T10:11:05.143Z,1.40
2023-05-05T10:13:37.926Z,1.50
2023-05-05T10:16:09.243Z,1.30
2023-05-05T10:18:42.770Z,1.40
2023-05-05T10:21:13.744Z,1.50
2023-05-05T10:23:49.691Z,1.50
2023-05-05T10:26:23.917Z,1.40
2023-05-05T10:28:56.761Z,1.40
2023-05-05T10:31:47.488Z,1.50
2023-05-05T10:34:27.339Z,1.40
2023-05-05T10:36:57.539Z,1.50
2023-05-05T10:39:26.664Z,1.40
2023-05-05T10:41:54.695Z,1.30
2023-05-05T10:44:23.595Z,1.30
2023-05-05T10:46:51.806Z,1.40
2023-05-05T10:49:40.947Z,1.50
2023-05-05T10:52:42.383Z,1.40
2023-05-05T10:55:46.541Z,1.60
2023-05-05T10:58:55.653Z,1.60
2023-05-05T11:01:32.119Z,1.70
2023-05-05T11:04:17.374Z,1.50
2023-05-05T11:07:14.443Z,1.70
2023-05-05T11:09:56.103Z,1.80
2023-05-05T11:12:24.363Z,1.80
2023-05-05T11:15:28.003Z,2.00
2023-05-05T11:17:57.274Z,1.80
2023-05-05T11:20:40.600Z,1.80
2023-05-05T11:23:08.581Z,2.00
2023-05-05T11:25:37.098Z,1.80
2023-05-05T11:28:19.407Z,1.80
2023-05-05T11:30:59.644Z,1.90
2023-05-05T11:33:32.057Z,1.80
2023-05-05T11:36:08.930Z,1.90
2023-05-05T11:39:05.606Z,1.70
2023-05-05T11:41:48.324Z,2.30
2023-05-05T11:44:29.597Z,2.00
2023-05-05T11:46:57.568Z,1.90
2023-05-05T11:49:33.279Z,1.70
2023-05-05T11:52:12.605Z,1.80
2023-05-05T11:54:49.332Z,1.90
2023-05-05T11:57:21.894Z,2.10
2023-05-05T11:59:53.954Z,1.90
2023-05-05T12:02:23.025Z,1.80
2023-05-05T12:04:51.550Z,1.90
2023-05-05T12:07:21.717Z,1.90
2023-05-05T12:09:50.153Z,2.30
2023-05-05T12:12:20.531Z,2.10
2023-05-05T12:14:51.997Z,2.10
2023-05-05T12:17:21.047Z,1.80
2023-05-05T12:19:54.910Z,2.00
2023-05-05T12:22:25.134Z,2.20
2023-05-05T12:24:58.550Z,2.00
2023-05-05T12:27:28.641Z,2.00
2023-05-05T12:29:58.262Z,2.20
2023-05-05T12:32:30.445Z,1.80
2023-05-05T12:34:58.606Z,1.90
2023-05-05T12:37:27.903Z,1.90
2023-05-05T12:39:56.064Z,1.80
2023-05-05T12:42:24.347Z,1.70
2023-05-05T12:44:52.621Z,2.00
2023-05-05T12:47:31.841Z,2.20
2023-05-05T12:50:00.951Z,2.20
2023-05-05T12:52:49.699Z,2.70
2023-05-05T12:55:19.917Z,2.10
2023-05-05T12:58:04.790Z,2.00
2023-05-05T13:00:32.871Z,1.80
2023-05-05T13:03:01.393Z,1.90
2023-05-05T13:05:34.020Z,2.10
2023-05-05T13:08:02.430Z,1.70
2023-05-05T13:10:31.604Z,1.80
2023-05-05T13:12:59.884Z,1.70
2023-05-05T13:15:28.220Z,2.00
2023-05-05T13:18:01.009Z,2.00
2023-05-05T13:20:29.218Z,1.80
2023-05-05T13:22:57.580Z,1.90
2023-05-05T13:25:25.644Z,1.80
2023-05-05T13:27:53.611Z,2.00
2023-05-05T13:30:21.784Z,2.00
2023-05-05T13:32:50.181Z,1.90
2023-05-05T13:35:18.536Z,2.20
2023-05-05T13:37:47.709Z,1.80
2023-05-05T13:40:16.240Z,1.80
2023-05-05T13:42:44.399Z,1.70
2023-05-05T13:45:14.236Z,1.60
2023-05-05T13:47:43.034Z,1.70
2023-05-05T13:50:11.800Z,1.50
2023-05-05T13:52:39.846Z,1.70
2023-05-05T13:55:08.919Z,2.00
2023-05-05T13:57:37.378Z,1.60
2023-05-05T14:00:08.283Z,1.80
2023-05-05T14:02:36.965Z,1.80
2023-05-05T14:05:06.599Z,1.70
2023-05-05T14:07:34.763Z,1.80
2023-05-05T14:10:03.123Z,1.80
2023-05-05T14:12:31.386Z,1.60
2023-05-05T14:14:59.309Z,1.90
2023-05-05T14:17:27.369Z,1.70
2023-05-05T14:19:55.784Z,1.80
2023-05-05T14:22:24.063Z,1.70
2023-05-05T14:24:52.126Z,1.80
2023-05-05T14:27:20.153Z,1.70
2023-05-05T14:29:48.296Z,1.70
2023-05-05T14:32:16.451Z,1.60
2023-05-05T14:34:45.263Z,1.90
2023-05-05T14:37:13.304Z,1.70
2023-05-05T14:39:41.283Z,1.70
2023-05-05T14:42:09.516Z,1.90
2023-05-05T14:44:37.743Z,1.70
2023-05-05T14:47:05.892Z,1.80
2023-05-05T14:49:33.888Z,1.90
2023-05-05T14:52:01.949Z,1.70
2023-05-05T14:54:30.239Z,2.00
2023-05-05T14:56:58.585Z,1.60
2023-05-05T14:59:27.680Z,1.70
2023-05-05T15:01:56.796Z,1.90
2023-05-05T15:04:25.051Z,1.60
2023-05-05T15:06:53.021Z,1.70
2023-05-05T15:09:21.183Z,1.80
2023-05-05T15:11:49.310Z,1.60
2023-05-05T15:14:17.434Z,1.70
2023-05-05T15:16:47.005Z,1.70
2023-05-05T15:19:14.981Z,1.90
2023-05-05T15:21:42.879Z,1.80
2023-05-05T15:24:10.946Z,1.70
2023-05-05T15:26:38.906Z,1.50
2023-05-05T15:29:06.884Z,1.90
2023-05-05T15:31:34.978Z,2.00
2023-05-05T15:34:03.135Z,1.80
2023-05-05T15:36:32.367Z,1.50
2023-05-05T15:39:00.452Z,1.80
2023-05-05T15:41:29.490Z,1.80
2023-05-05T15:43:58.272Z,1.60
2023-05-05T15:46:26.495Z,1.60
2023-05-05T15:48:54.454Z,1.70
2023-05-05T15:51:22.387Z,1.70
2023-05-05T15:53:52.373Z,1.70
2023-05-05T15:56:20.600Z,2.00
2023-05-05T15:58:48.638Z,1.80
2023-05-05T16:01:16.657Z,1.60
2023-05-05T16:03:44.676Z,1.60
2023-05-05T16:06:12.892Z,1.70
2023-05-05T16:08:40.983Z,1.80
2023-05-05T16:11:08.992Z,1.70
2023-05-05T16:13:39.116Z,1.80
2023-05-05T16:16:07.261Z,1.70
2023-05-05T16:18:35.192Z,2.00
2023-05-05T16:21:03.240Z,1.70
2023-05-05T16:23:31.160Z,1.60
2023-05-05T16:25:59.356Z,1.60
2023-05-05T16:28:27.552Z,1.60
2023-05-05T16:30:55.602Z,1.70
2023-05-05T16:33:23.671Z,1.60
2023-05-05T16:35:51.754Z,1.80
2023-05-05T16:38:19.783Z,1.80
2023-05-05T16:40:47.882Z,1.70
2023-05-05T16:43:15.941Z,1.60
2023-05-05T16:45:43.857Z,1.70
2023-05-05T16:48:12.576Z,1.80
2023-05-05T16:50:40.842Z,1.80
2023-05-05T16:53:10.102Z,1.70
2023-05-05T16:55:38.187Z,1.80
2023-05-05T16:58:06.354Z,1.70
2023-05-05T17:00:34.331Z,1.90
2023-05-05T17:03:02.348Z,1.90
2023-05-05T17:05:30.484Z,1.80
2023-05-05T17:07:58.585Z,1.70
2023-05-05T17:10:27.213Z,1.80
2023-05-05T17:12:55.298Z,1.70
2023-05-05T17:15:23.527Z,2.10
2023-05-05T17:17:51.504Z,2.00
2023-05-05T17:20:19.778Z,1.90
2023-05-05T17:22:47.851Z,2.00
2023-05-05T17:25:16.139Z,2.20
2023-05-05T17:27:44.142Z,1.80
2023-05-05T17:30:12.725Z,2.10
2023-05-05T17:32:41.175Z,1.80
2023-05-05T17:35:09.996Z,2.00
2023-05-05T17:37:38.111Z,1.80
2023-05-05T17:40:07.338Z,2.00
2023-05-05T17:42:35.675Z,2.00
2023-05-05T17:45:04.040Z,2.20
2023-05-05T17:47:32.279Z,2.20
2023-05-05T17:50:00.918Z,1.90
2023-05-05T17:52:28.993Z,1.90
2023-05-05T17:54:57.095Z,2.10
2023-05-05T17:57:25.018Z,2.10
2023-05-05T17:59:53.783Z,2.20
2023-05-05T18:02:22.180Z,2.40
2023-05-05T18:04:50.297Z,2.10
2023-05-05T18:07:18.339Z,2.30
2023-05-05T18:09:46.429Z,2.40
2023-05-05T18:12:14.500Z,2.30
2023-05-05T18:14:42.457Z,2.40
2023-05-05T18:17:10.521Z,2.10
2023-05-05T18:19:42.398Z,2.20
2023-05-05T18:22:11.545Z,2.00
2023-05-05T18:24:39.644Z,2.10
2023-05-05T18:27:07.842Z,2.20
2023-05-05T18:29:36.191Z,2.30
2023-05-05T18:32:06.149Z,2.30
2023-05-05T18:34:34.798Z,2.30
2023-05-05T18:37:02.755Z,2.30
2023-05-05T18:39:30.834Z,2.30
2023-05-05T18:41:58.902Z,2.10
2023-05-05T18:44:26.926Z,2.30
2023-05-05T18:46:55.105Z,2.40
2023-05-05T18:49:23.429Z,2.60
2023-05-05T18:51:52.284Z,2.50
2023-05-05T18:54:22.161Z,2.50
2023-05-05T18:56:50.133Z,2.50
2023-05-05T18:59:18.165Z,2.90
2023-05-05T19:01:46.145Z,2.80
2023-05-05T19:04:29.543Z,3.00
2023-05-05T19:06:59.668Z,3.10
2023-05-05T19:09:28.214Z,3.00
2023-05-05T19:11:56.350Z,2.80
2023-05-05T19:14:24.453Z,2.80
2023-05-05T19:16:53.070Z,3.20
2023-05-05T19:19:21.670Z,2.80
2023-05-05T19:21:49.683Z,2.90
2023-05-05T19:24:17.811Z,2.80
2023-05-05T19:26:45.777Z,2.60
2023-05-05T19:29:13.848Z,3.00
2023-05-05T19:31:41.949Z,2.50
2023-05-05T19:34:09.989Z,2.70
2023-05-05T19:36:38.418Z,2.50
2023-05-05T19:39:06.437Z,3.10
2023-05-05T19:41:35.563Z,2.70
2023-05-05T19:44:03.802Z,2.80
2023-05-05T19:46:32.052Z,2.60
2023-05-05T19:49:00.166Z,2.80
2023-05-05T19:51:28.225Z,2.80
2023-05-05T19:53:56.297Z,3.10
2023-05-05T19:56:24.500Z,2.80
2023-05-05T19:59:00.913Z,2.50
2023-05-05T20:01:29.515Z,3.00
2023-05-05T20:03:57.912Z,2.80
2023-05-05T20:06:27.114Z,2.80
2023-05-05T20:08:55.875Z,3.40
2023-05-05T20:11:25.230Z,3.60
2023-05-05T20:13:53.371Z,2.90
2023-05-05T20:16:22.131Z,3.50
2023-05-05T20:18:51.333Z,3.10
2023-05-05T20:21:19.500Z,3.00
2023-05-05T20:23:47.887Z,2.80
2023-05-05T20:26:15.954Z,2.80
2023-05-05T20:28:45.880Z,2.80
2023-05-05T20:31:14.950Z,3.80
2023-05-05T20:33:43.136Z,3.10
2023-05-05T20:36:11.703Z,3.60
2023-05-05T20:38:39.764Z,3.90
2023-05-05T20:41:07.757Z,4.10
2023-05-05T20:43:36.904Z,3.00
2023-05-05T20:46:04.860Z,3.30
2023-05-05T20:48:32.788Z,3.40
2023-05-05T20:51:03.916Z,3.00
2023-05-05T20:53:32.537Z,3.60
2023-05-05T20:56:00.954Z,3.00
2023-05-05T20:58:29.724Z,3.20
2023-05-05T21:00:58.502Z,3.00
2023-05-05T21:03:26.576Z,3.00
2023-05-05T21:05:54.789Z,3.50
2023-05-05T21:08:22.880Z,3.20
2023-05-05T21:10:50.877Z,3.00
2023-05-05T21:13:18.890Z,3.10
2023-05-05T21:15:47.002Z,2.80
2023-05-05T21:18:15.247Z,2.80
2023-05-05T21:20:43.340Z,3.20
2023-05-05T21:23:11.893Z,3.10
2023-05-05T21:25:39.842Z,2.90
2023-05-05T21:28:07.861Z,2.90
2023-05-05T21:30:35.925Z,2.60
2023-05-05T21:33:04.038Z,2.80
2023-05-05T21:35:32.087Z,2.70
2023-05-05T21:38:00.658Z,2.70
2023-05-05T21:40:28.723Z,3.00
2023-05-05T21:42:56.710Z,2.90
2023-05-05T21:45:24.863Z,2.90
2023-05-05T21:47:53.025Z,3.50
2023-05-05T21:50:21.167Z,2.90
2023-05-05T21:52:49.176Z,2.80
2023-05-05T21:55:17.222Z,2.60
2023-05-05T21:57:45.218Z,2.80
2023-05-05T22:00:16.969Z,2.80
2023-05-05T22:02:45.726Z,3.80
2023-05-05T22:05:14.139Z,6.30
2023-05-05T22:07:42.130Z,4.40
2023-05-05T22:10:11.340Z,4.00
2023-05-05T22:12:41.148Z,3.60
2023-05-05T22:15:10.061Z,3.30
2023-05-05T22:17:38.412Z,5.40
2023-05-05T22:20:11.226Z,4.60
2023-05-05T22:22:39.375Z,3.90
2023-05-05T22:25:08.151Z,3.70
2023-05-05T22:27:36.231Z,3.70
2023-05-05T22:30:04.879Z,3.60
2023-05-05T22:32:33.179Z,3.60
2023-05-05T22:35:01.578Z,3.30
2023-05-05T22:37:29.599Z,3.70
2023-05-05T22:39:57.589Z,3.60
2023-05-05T22:42:25.804Z,4.00
2023-05-05T22:44:53.990Z,3.90
2023-05-05T22:47:22.096Z,3.70
2023-05-05T22:49:50.293Z,3.60
2023-05-05T22:52:18.360Z,3.30
2023-05-05T22:54:46.389Z,3.90
2023-05-05T22:57:14.471Z,3.60
2023-05-05T22:59:42.540Z,3.80
2023-05-05T23:02:10.612Z,3.70
2023-05-05T23:04:38.796Z,3.70
2023-05-05T23:07:06.826Z,3.90
2023-05-05T23:09:34.923Z,3.60
2023-05-05T23:12:03.401Z,3.60
2023-05-05T23:14:31.479Z,3.50
2023-05-05T23:16:59.803Z,3.80
2023-05-05T23:19:29.461Z,3.70
2023-05-05T23:21:57.679Z,3.50
2023-05-05T23:24:26.860Z,3.60
2023-05-05T23:26:56.292Z,3.70
2023-05-05T23:29:24.510Z,3.40
2023-05-05T23:31:52.578Z,3.70
2023-05-05T23:34:20.666Z,3.50
2023-05-05T23:36:48.661Z,3.50
2023-05-05T23:39:16.802Z,3.90
2023-05-05T23:41:44.858Z,3.40
2023-05-05T23:44:13.575Z,3.60
2023-05-05T23:46:41.746Z,3.50
2023-05-05T23:49:09.908Z,3.60
2023-05-05T23:51:38.169Z,5.10
2023-05-05T23:54:06.218Z,3.50
2023-05-05T23:56:34.307Z,3.50
2023-05-05T23:59:02.384Z,3.10
